Terminal Aerodrome Forecast
Issued by NWS

Home | Current Version | Previous Version | Text Only | Print | Product List | Glossary On
Versions: 1 2 3 4 5 6 7 8 9 10 11 12 13 14 15 16 17 18 19 20 21 22 23 24
000
FTUS45 KFGZ 060531
TAFGCN
TAF
KGCN 060531Z 0606/0706 VRB04KT P6SM SCT050
     FM061000 00000KT P6SM VCFG BKN009
     FM061400 19005KT P6SM SCT015
     FM061800 21012G22KT P6SM FEW070 SCT150
     FM070100 VRB06KT P6SM FEW150=

USA.gov is the U.S. government's official web portal to all federal, state and local government web resources and services.